Time;durP1;ratioP1;P1;durP2;ratioP2;P2;SDS_P1;SDS_P2;PMS_P1;PMS_P2;Temp;Humidity;BMP_temperature;BMP_pressure;BME280_temperature;BME280_humidity;BME280_pressure;Samples;Min_cycle;Max_cycle;Signal;HPM_P1;HPM_P2
2023/10/13 00:01:21;;;;;;;10.82;7.07;;;15.00;99.90;;;;;;5058556;28;20207;-80
2023/10/13 00:03:48;;;;;;;10.52;7.10;;;15.00;99.90;;;;;;5059440;28;20229;-82
2023/10/13 00:06:18;;;;;;;10.40;7.03;;;15.00;99.90;;;;;;5059807;28;20573;-82
2023/10/13 00:08:45;;;;;;;10.60;6.78;;;15.00;99.90;;;;;;5058485;28;20227;-82
2023/10/13 00:11:13;;;;;;;9.70;6.60;;;15.10;99.90;;;;;;5058861;28;20207;-82
2023/10/13 00:13:50;;;;;;;10.82;7.28;;;15.10;99.90;;;;;;5059517;28;20219;-84
2023/10/13 00:16:21;;;;;;;10.77;6.82;;;15.20;99.90;;;;;;5058613;28;20210;-84
2023/10/13 00:18:48;;;;;;;12.77;7.40;;;15.20;99.90;;;;;;5057466;28;20223;-84
2023/10/13 00:21:24;;;;;;;11.73;6.72;;;15.20;99.90;;;;;;5057629;28;20211;-84
2023/10/13 00:23:53;;;;;;;12.60;7.63;;;15.30;99.90;;;;;;5058387;28;20253;-85
2023/10/13 00:26:24;;;;;;;10.48;6.85;;;15.20;99.90;;;;;;5058189;28;20199;-84
2023/10/13 00:28:58;;;;;;;11.05;7.93;;;15.30;99.90;;;;;;5057627;28;20742;-84
2023/10/13 00:31:31;;;;;;;14.32;8.00;;;15.20;99.90;;;;;;5045384;28;20230;-82
2023/10/13 00:34:02;;;;;;;10.48;7.78;;;15.30;99.90;;;;;;5058837;28;20196;-81
2023/10/13 00:36:31;;;;;;;10.85;7.40;;;15.30;99.90;;;;;;5057070;28;20293;-82
2023/10/13 00:38:59;;;;;;;11.32;7.60;;;15.30;99.90;;;;;;5058102;28;20231;-84
2023/10/13 00:41:52;;;;;;;13.40;7.57;;;15.30;99.90;;;;;;5057374;28;20207;-82
2023/10/13 00:44:16;;;;;;;10.15;7.50;;;15.20;99.90;;;;;;5058502;28;20268;-82
2023/10/13 00:46:44;;;;;;;10.68;7.00;;;15.30;99.90;;;;;;5058206;28;20593;-82
2023/10/13 00:49:15;;;;;;;11.20;7.28;;;15.20;99.90;;;;;;5058869;28;20245;-83
2023/10/13 00:51:47;;;;;;;14.73;7.82;;;15.30;99.90;;;;;;5061637;28;20207;-82
2023/10/13 00:54:16;;;;;;;12.93;8.20;;;15.20;99.90;;;;;;5057663;28;20198;-84
2023/10/13 00:56:46;;;;;;;12.20;8.10;;;15.30;99.90;;;;;;5057109;28;20699;-84
2023/10/13 00:59:14;;;;;;;9.90;7.72;;;15.30;99.90;;;;;;5055766;28;20225;-83
2023/10/13 01:01:42;;;;;;;12.85;7.57;;;15.20;99.90;;;;;;5055970;28;20298;-85
2023/10/13 01:04:12;;;;;;;12.93;8.80;;;15.30;99.90;;;;;;5056153;28;20306;-84
2023/10/13 01:06:38;;;;;;;11.07;8.00;;;15.40;99.90;;;;;;5057480;28;20257;-84
2023/10/13 01:09:16;;;;;;;12.82;8.15;;;15.40;99.90;;;;;;5056555;28;20218;-84
2023/10/13 01:11:44;;;;;;;13.48;7.93;;;15.40;99.90;;;;;;5060211;28;20211;-84
2023/10/13 01:14:12;;;;;;;11.68;7.85;;;15.40;99.90;;;;;;5057297;28;20237;-84
2023/10/13 01:16:43;;;;;;;12.23;8.38;;;15.40;99.90;;;;;;5057670;28;20211;-85
2023/10/13 01:19:12;;;;;;;15.32;9.65;;;15.40;99.90;;;;;;5056648;28;20725;-84
2023/10/13 01:21:40;;;;;;;14.25;8.68;;;15.40;99.90;;;;;;5057213;28;20294;-85
2023/10/13 01:24:10;;;;;;;12.27;8.93;;;15.40;99.90;;;;;;5057694;28;20211;-85
2023/10/13 01:26:38;;;;;;;13.15;9.38;;;15.40;99.90;;;;;;5057294;28;20234;-84
2023/10/13 01:29:12;;;;;;;15.15;9.60;;;15.50;99.90;;;;;;5054625;28;20219;-83
2023/10/13 01:31:45;;;;;;;14.20;9.43;;;15.50;99.90;;;;;;5055730;28;20210;-84
2023/10/13 01:34:12;;;;;;;16.83;9.80;;;15.50;99.90;;;;;;5057146;28;20253;-84
2023/10/13 01:36:40;;;;;;;17.75;10.88;;;15.60;99.90;;;;;;5057334;28;20218;-84
2023/10/13 01:39:10;;;;;;;15.68;11.15;;;15.60;99.90;;;;;;5056550;28;20239;-83
2023/10/13 01:41:39;;;;;;;17.73;12.15;;;15.50;99.90;;;;;;5057321;28;20206;-84
2023/10/13 01:44:05;;;;;;;16.65;10.98;;;15.60;99.90;;;;;;5056913;28;20223;-84
2023/10/13 01:46:32;;;;;;;15.95;11.00;;;15.50;99.90;;;;;;5056881;28;20213;-84
2023/10/13 01:48:58;;;;;;;19.15;11.85;;;15.60;99.90;;;;;;5055900;28;20234;-85
2023/10/13 01:51:28;;;;;;;19.27;11.82;;;15.60;99.90;;;;;;5055939;28;20203;-84
2023/10/13 01:53:56;;;;;;;19.80;11.23;;;15.70;99.90;;;;;;5056623;28;20721;-84
2023/10/13 01:56:24;;;;;;;17.05;11.20;;;15.60;99.90;;;;;;5050323;28;20569;-84
2023/10/13 01:58:51;;;;;;;15.55;11.25;;;15.70;99.90;;;;;;5055420;28;20263;-84
2023/10/13 02:01:26;;;;;;;15.80;11.25;;;15.80;99.90;;;;;;5055977;28;20195;-84
2023/10/13 02:04:01;;;;;;;16.63;10.55;;;15.70;99.90;;;;;;5056536;28;20218;-82
2023/10/13 02:06:32;;;;;;;16.88;11.57;;;15.70;99.90;;;;;;5055234;28;20214;-82
2023/10/13 02:09:03;;;;;;;17.80;11.18;;;15.80;99.90;;;;;;5056245;28;20580;-81
2023/10/13 02:11:31;;;;;;;16.88;11.30;;;15.80;99.90;;;;;;5057642;28;20276;-82
2023/10/13 02:13:57;;;;;;;17.27;11.73;;;15.80;99.90;;;;;;5056984;28;20593;-83
2023/10/13 02:16:25;;;;;;;17.90;11.88;;;15.80;99.90;;;;;;5057208;28;20238;-83
2023/10/13 02:18:51;;;;;;;17.92;11.48;;;15.70;99.90;;;;;;5056337;28;20226;-82
2023/10/13 02:21:18;;;;;;;16.58;11.30;;;15.60;99.90;;;;;;5055133;28;20653;-83
2023/10/13 02:23:45;;;;;;;14.13;10.60;;;15.60;99.90;;;;;;5056507;28;20595;-83
2023/10/13 02:26:14;;;;;;;16.50;11.35;;;15.70;99.90;;;;;;5057403;28;20213;-82
2023/10/13 02:28:43;;;;;;;14.60;10.02;;;15.70;99.90;;;;;;5056683;28;20282;-83
2023/10/13 02:31:11;;;;;;;12.73;9.20;;;15.70;99.90;;;;;;5057357;28;20203;-83
2023/10/13 02:33:44;;;;;;;14.90;9.00;;;15.70;99.90;;;;;;5057647;28;20264;-82
2023/10/13 02:36:12;;;;;;;14.57;8.90;;;15.60;99.90;;;;;;5057069;28;20214;-82
2023/10/13 02:38:45;;;;;;;12.05;9.05;;;15.60;99.90;;;;;;5056005;28;20314;-82
2023/10/13 02:41:18;;;;;;;13.98;7.97;;;15.80;99.90;;;;;;5056391;28;20689;-83
2023/10/13 02:43:46;;;;;;;13.68;8.23;;;15.70;99.90;;;;;;5057596;28;20280;-83
2023/10/13 02:46:15;;;;;;;10.43;7.70;;;15.70;99.90;;;;;;5058720;28;20207;-83
2023/10/13 02:48:42;;;;;;;11.73;7.82;;;15.70;99.90;;;;;;5055374;28;20238;-82
2023/10/13 02:51:16;;;;;;;12.52;7.53;;;15.70;99.90;;;;;;5056664;28;20302;-83
2023/10/13 02:53:46;;;;;;;11.13;7.22;;;15.70;99.90;;;;;;5059425;28;20295;-83
2023/10/13 02:56:13;;;;;;;11.82;7.32;;;15.80;99.90;;;;;;5059807;28;20199;-83
2023/10/13 02:58:43;;;;;;;12.23;7.30;;;15.80;99.90;;;;;;5059733;28;20223;-83
2023/10/13 03:01:17;;;;;;;10.82;7.28;;;15.80;99.90;;;;;;5061218;28;20207;-83
2023/10/13 03:03:50;;;;;;;12.45;7.30;;;15.80;99.90;;;;;;5060885;28;20310;-83
2023/10/13 03:06:16;;;;;;;9.05;6.43;;;15.80;99.90;;;;;;5060799;28;20608;-83
2023/10/13 03:08:43;;;;;;;10.77;7.18;;;16.00;99.90;;;;;;5060605;28;20602;-83
2023/10/13 03:11:11;;;;;;;10.50;6.80;;;16.00;99.90;;;;;;5060965;28;20646;-83
2023/10/13 03:13:43;;;;;;;6.88;6.18;;;15.90;99.90;;;;;;5060905;28;20227;-82
2023/10/13 03:16:16;;;;;;;10.65;7.63;;;15.90;99.90;;;;;;5059964;28;20237;-83
2023/10/13 03:18:52;;;;;;;9.95;6.90;;;15.90;99.90;;;;;;5058379;28;20225;-83
2023/10/13 03:21:28;;;;;;;11.75;6.55;;;15.90;99.90;;;;;;5058926;28;20206;-82
2023/10/13 03:23:55;;;;;;;9.85;6.18;;;16.10;99.90;;;;;;5059947;28;20222;-83
2023/10/13 03:26:22;;;;;;;7.68;6.10;;;16.00;99.90;;;;;;5060479;28;20195;-83
2023/10/13 03:28:52;;;;;;;9.35;6.60;;;16.00;99.90;;;;;;5059028;28;20227;-83
2023/10/13 03:31:25;;;;;;;9.50;6.80;;;15.90;99.90;;;;;;5059820;28;20217;-83
2023/10/13 03:33:56;;;;;;;9.43;6.95;;;16.00;99.90;;;;;;5059283;28;20210;-82
2023/10/13 03:36:56;;;;;;;11.05;7.10;;;16.00;99.90;;;;;;5050998;28;20211;-83
2023/10/13 03:39:28;;;;;;;9.68;7.07;;;16.00;99.90;;;;;;5050841;28;20230;-83
2023/10/13 03:41:56;;;;;;;7.28;5.88;;;15.90;99.90;;;;;;5055885;28;20352;-83
2023/10/13 03:44:23;;;;;;;8.40;6.40;;;15.90;99.90;;;;;;5052081;28;20234;-82
2023/10/13 03:46:54;;;;;;;10.40;6.93;;;15.90;99.90;;;;;;5059676;28;20237;-83
2023/10/13 03:49:21;;;;;;;9.90;6.95;;;15.80;99.90;;;;;;5059007;28;20590;-83
2023/10/13 03:51:49;;;;;;;11.05;6.90;;;15.80;99.90;;;;;;5059339;28;20293;-83
2023/10/13 03:54:17;;;;;;;10.45;6.22;;;15.70;99.90;;;;;;5059425;28;20195;-83
2023/10/13 03:56:45;;;;;;;9.55;6.22;;;15.70;99.90;;;;;;5059604;28;20210;-83
2023/10/13 03:59:19;;;;;;;11.57;6.82;;;15.60;99.90;;;;;;5059650;28;20618;-83
2023/10/13 04:01:58;;;;;;;12.13;6.72;;;15.60;99.90;;;;;;5059716;28;20210;-83
2023/10/13 04:04:42;;;;;;;11.70;6.47;;;15.70;99.90;;;;;;5059375;28;20215;-82
2023/10/13 04:07:38;;;;;;;10.13;6.35;;;15.60;99.90;;;;;;5059086;28;20202;-83
2023/10/13 04:15:42;;;;;;;10.52;6.43;;;15.60;99.90;;;;;;5060329;28;20764;-83
2023/10/13 04:18:30;;;;;;;9.48;6.05;;;15.50;99.90;;;;;;5059576;28;20313;-83
2023/10/13 04:21:18;;;;;;;9.63;6.53;;;15.40;99.90;;;;;;5058538;28;20213;-83
2023/10/13 04:26:36;;;;;;;6.07;5.20;;;15.40;99.90;;;;;;5059403;28;20631;-83
2023/10/13 04:29:10;;;;;;;7.72;5.65;;;15.40;99.90;;;;;;5059298;28;20265;-83
2023/10/13 04:34:28;;;;;;;9.07;7.63;;;15.40;99.90;;;;;;5053916;28;20194;-83
2023/10/13 04:37:22;;;;;;;10.68;8.02;;;15.40;99.90;;;;;;5060216;28;20222;-83
2023/10/13 04:39:56;;;;;;;14.32;9.55;;;15.40;99.90;;;;;;5055794;28;20225;-83
2023/10/13 04:42:39;;;;;;;12.48;9.02;;;15.40;99.90;;;;;;5052067;28;20230;-83
2023/10/13 04:45:38;;;;;;;9.07;6.65;;;15.30;99.90;;;;;;5049020;28;20286;-84
2023/10/13 04:48:14;;;;;;;10.25;6.47;;;15.30;99.90;;;;;;5056291;28;20203;-83
2023/10/13 04:50:47;;;;;;;11.00;6.47;;;15.30;99.90;;;;;;5052031;28;20209;-84
2023/10/13 04:53:33;;;;;;;12.10;6.93;;;15.30;99.90;;;;;;5058528;28;20203;-83
2023/10/13 04:56:52;;;;;;;9.45;6.80;;;15.30;99.90;;;;;;5059635;28;20195;-84
2023/10/13 05:04:38;;;;;;;13.07;7.30;;;15.30;99.90;;;;;;5054184;28;20309;-83
2023/10/13 05:51:57;;;;;;;9.82;7.18;;;15.50;99.90;;;;;;5087238;28;20553;-83
2023/10/13 06:30:17;;;;;;;9.45;6.78;;;16.00;99.90;;;;;;5066779;28;20307;-83
2023/10/13 06:32:47;;;;;;;12.57;7.57;;;16.00;99.90;;;;;;5066978;28;20635;-84
2023/10/13 06:35:22;;;;;;;12.15;7.60;;;16.10;99.90;;;;;;5064294;28;20211;-84
2023/10/13 06:37:49;;;;;;;11.05;7.18;;;16.10;99.90;;;;;;5065402;28;20253;-84
2023/10/13 06:40:33;;;;;;;14.02;7.82;;;16.10;99.90;;;;;;5061357;28;20228;-85
2023/10/13 06:43:16;;;;;;;10.98;7.95;;;16.10;99.90;;;;;;5067389;28;20241;-84
2023/10/13 06:45:50;;;;;;;10.27;7.15;;;16.10;99.90;;;;;;5057598;28;20206;-85
2023/10/13 06:48:19;;;;;;;11.80;7.47;;;16.20;99.90;;;;;;5068161;28;20229;-84
2023/10/13 06:50:51;;;;;;;10.45;7.25;;;16.20;99.90;;;;;;5065021;28;20219;-84
2023/10/13 06:53:19;;;;;;;9.55;7.18;;;16.20;99.90;;;;;;5069520;28;20650;-86
2023/10/13 06:55:49;;;;;;;12.23;7.10;;;16.30;99.90;;;;;;5066927;28;20215;-84
2023/10/13 06:58:23;;;;;;;9.90;6.97;;;16.30;99.90;;;;;;5068428;28;20214;-83
2023/10/13 07:00:58;;;;;;;12.65;7.13;;;16.30;99.90;;;;;;5066277;28;20273;-84
2023/10/13 07:03:25;;;;;;;11.98;7.85;;;16.40;99.90;;;;;;5047915;28;20665;-85
2023/10/13 07:05:53;;;;;;;10.38;7.15;;;16.50;99.90;;;;;;5053604;28;20199;-85
2023/10/13 07:08:20;;;;;;;9.68;7.15;;;16.40;99.90;;;;;;5049804;28;20316;-84
2023/10/13 07:11:02;;;;;;;9.25;6.72;;;16.50;99.90;;;;;;5049876;28;20226;-84
2023/10/13 07:13:29;;;;;;;14.25;7.93;;;16.50;99.90;;;;;;5051135;28;20859;-86
2023/10/13 07:16:00;;;;;;;9.85;7.35;;;16.60;99.90;;;;;;5047190;28;20295;-85
2023/10/13 07:18:35;;;;;;;10.63;7.97;;;16.50;99.90;;;;;;5056024;28;20242;-84
2023/10/13 07:21:09;;;;;;;13.45;8.68;;;16.50;99.90;;;;;;5037924;28;20581;-85
2023/10/13 07:23:36;;;;;;;15.02;9.10;;;16.60;99.90;;;;;;5050590;28;20606;-84
2023/10/13 07:26:08;;;;;;;11.68;7.63;;;16.70;99.90;;;;;;5058084;28;20203;-84
2023/10/13 07:28:43;;;;;;;11.77;8.10;;;16.80;99.90;;;;;;5052725;28;20232;-85
2023/10/13 07:31:15;;;;;;;14.55;7.75;;;16.70;99.90;;;;;;5047661;28;20203;-84
2023/10/13 07:33:42;;;;;;;12.65;7.80;;;16.80;99.90;;;;;;5055130;28;20207;-84
2023/10/13 07:36:17;;;;;;;11.38;6.68;;;17.00;99.90;;;;;;5052606;28;20199;-84
2023/10/13 07:38:48;;;;;;;10.95;7.00;;;17.00;99.90;;;;;;5044305;28;20227;-84
2023/10/13 07:41:17;;;;;;;10.75;6.70;;;17.10;99.90;;;;;;5053128;28;20542;-84
2023/10/13 07:43:45;;;;;;;11.00;6.60;;;17.10;99.90;;;;;;5055309;28;20631;-84
2023/10/13 07:46:12;;;;;;;11.35;7.18;;;17.10;99.90;;;;;;5055816;28;20734;-84
2023/10/13 07:48:40;;;;;;;9.02;5.78;;;17.20;99.90;;;;;;5052606;28;20238;-84
2023/10/13 07:51:11;;;;;;;10.45;6.53;;;17.20;99.90;;;;;;5050925;28;20218;-84
2023/10/13 07:53:40;;;;;;;9.38;6.57;;;17.10;99.90;;;;;;5049417;28;20199;-84
2023/10/13 07:56:08;;;;;;;10.45;6.35;;;17.30;99.90;;;;;;5043231;28;20211;-84
2023/10/13 07:58:52;;;;;;;12.65;6.60;;;17.30;99.90;;;;;;5049779;28;20222;-84
2023/10/13 08:01:19;;;;;;;9.73;6.05;;;17.30;99.90;;;;;;5042185;28;20202;-83
2023/10/13 08:04:04;;;;;;;12.85;6.70;;;17.30;99.90;;;;;;5054992;28;20286;-84
2023/10/13 08:06:31;;;;;;;9.65;6.05;;;17.20;99.90;;;;;;5049499;28;20257;-84
2023/10/13 08:09:07;;;;;;;9.13;5.70;;;17.30;99.90;;;;;;5047939;28;20228;-84
2023/10/13 08:11:34;;;;;;;10.30;6.00;;;17.30;99.90;;;;;;5054908;28;20222;-84
2023/10/13 08:14:22;;;;;;;9.23;5.53;;;17.40;99.90;;;;;;5055596;28;20198;-84
2023/10/13 08:16:59;;;;;;;8.80;5.82;;;17.40;99.90;;;;;;5055468;28;20289;-85
2023/10/13 08:19:28;;;;;;;8.35;4.88;;;17.50;99.90;;;;;;5054546;28;20237;-85
2023/10/13 08:21:58;;;;;;;8.95;4.63;;;17.40;99.90;;;;;;5049807;28;20211;-85
2023/10/13 08:24:29;;;;;;;8.13;4.75;;;17.70;99.90;;;;;;5043974;28;20199;-86
2023/10/13 08:27:15;;;;;;;5.72;4.78;;;17.70;99.90;;;;;;5055011;28;20209;-83
2023/10/13 08:32:54;;;;;;;16.10;9.05;;;17.80;99.90;;;;;;5053341;28;20686;-84
2023/10/13 08:35:33;;;;;;;5.03;4.35;;;17.80;99.90;;;;;;5047455;28;20310;-84
2023/10/13 08:38:04;;;;;;;7.93;4.28;;;18.00;99.90;;;;;;5055416;28;20657;-84
2023/10/13 08:43:17;;;;;;;8.15;4.32;;;18.00;99.90;;;;;;5055798;28;20680;-84
2023/10/13 08:45:53;;;;;;;7.68;4.32;;;18.00;99.90;;;;;;5056794;28;20230;-84
2023/10/13 08:48:26;;;;;;;6.10;4.00;;;18.00;99.90;;;;;;5048725;28;20392;-84
2023/10/13 08:50:55;;;;;;;7.07;3.97;;;18.10;99.90;;;;;;5049432;28;20219;-83
2023/10/13 08:53:29;;;;;;;4.70;4.03;;;18.10;99.90;;;;;;5056933;28;20203;-84
2023/10/13 08:56:05;;;;;;;7.55;4.00;;;18.30;99.90;;;;;;5051316;28;20222;-84
2023/10/13 09:01:34;;;;;;;6.28;3.67;;;18.30;99.90;;;;;;5045560;28;20248;-84
2023/10/13 09:04:20;;;;;;;4.68;3.55;;;18.30;99.90;;;;;;5055552;28;20226;-84
2023/10/13 09:07:15;;;;;;;6.43;3.38;;;18.40;99.90;;;;;;5053692;28;20195;-83
2023/10/13 09:10:11;;;;;;;6.82;3.50;;;18.50;99.90;;;;;;5056289;28;20670;-83
2023/10/13 09:12:45;;;;;;;8.18;3.70;;;18.60;99.90;;;;;;5049233;28;20203;-84
2023/10/13 09:15:18;;;;;;;7.03;3.60;;;18.70;99.90;;;;;;5054803;28;20203;-84
2023/10/13 09:17:53;;;;;;;5.45;3.15;;;18.70;99.90;;;;;;5053464;28;20202;-86
2023/10/13 09:20:32;;;;;;;5.30;3.38;;;18.80;99.90;;;;;;5048445;28;20218;-84
2023/10/13 09:23:08;;;;;;;6.50;3.90;;;18.80;99.90;;;;;;5049979;28;20215;-83
2023/10/13 09:25:36;;;;;;;6.45;3.75;;;19.20;99.90;;;;;;5049005;28;20203;-85
2023/10/13 09:28:14;;;;;;;5.80;3.42;;;19.00;99.90;;;;;;5052403;28;20195;-84
2023/10/13 09:30:44;;;;;;;7.47;3.75;;;19.10;99.90;;;;;;5050865;28;20223;-86
2023/10/13 09:33:15;;;;;;;5.45;3.58;;;19.10;99.90;;;;;;5054419;28;20202;-84
2023/10/13 09:35:49;;;;;;;7.75;3.70;;;19.30;99.90;;;;;;5054585;28;20203;-84
2023/10/13 09:38:16;;;;;;;6.07;4.13;;;19.40;99.90;;;;;;5052145;28;20230;-84
2023/10/13 09:40:49;;;;;;;6.47;3.70;;;19.50;99.90;;;;;;5046435;28;20211;-85
2023/10/13 09:43:17;;;;;;;9.05;4.25;;;19.60;99.90;;;;;;5052787;28;20195;-85
2023/10/13 09:46:01;;;;;;;5.22;3.60;;;19.70;99.90;;;;;;5053725;28;20203;-84
2023/10/13 09:48:32;;;;;;;9.52;3.88;;;19.70;99.90;;;;;;5047886;28;20223;-85
2023/10/13 09:51:02;;;;;;;5.68;3.67;;;20.20;99.90;;;;;;5053449;28;20314;-84
2023/10/13 09:53:30;;;;;;;6.78;3.92;;;19.90;99.90;;;;;;5046490;28;20238;-85
2023/10/13 09:56:11;;;;;;;7.25;3.75;;;20.00;99.90;;;;;;5044816;28;20199;-84
2023/10/13 09:58:50;;;;;;;9.38;3.70;;;20.00;99.90;;;;;;5043103;28;20664;-84
2023/10/13 10:01:31;;;;;;;7.63;4.15;;;20.30;99.90;;;;;;5046327;28;20274;-85
2023/10/13 10:04:08;;;;;;;9.98;5.20;;;20.50;99.90;;;;;;5044376;28;20563;-84
2023/10/13 10:06:43;;;;;;;7.60;3.70;;;20.50;99.90;;;;;;5049910;28;20195;-85
2023/10/13 10:09:13;;;;;;;7.25;3.70;;;20.50;99.90;;;;;;5048541;28;20240;-85
2023/10/13 10:12:18;;;;;;;8.77;3.85;;;20.50;99.90;;;;;;5050209;28;20290;-83
2023/10/13 10:15:03;;;;;;;12.25;4.18;;;20.40;99.90;;;;;;5038784;28;20211;-83
2023/10/13 10:17:33;;;;;;;9.63;4.20;;;20.50;99.90;;;;;;5043942;28;20595;-85
2023/10/13 10:20:06;;;;;;;9.90;4.43;;;20.90;99.90;;;;;;5045955;28;20813;-84
2023/10/13 10:22:35;;;;;;;10.55;4.30;;;21.20;99.90;;;;;;5040803;28;20215;-83
2023/10/13 10:25:03;;;;;;;7.47;4.13;;;21.30;99.90;;;;;;5049930;28;20691;-82
2023/10/13 10:27:32;;;;;;;11.68;4.72;;;21.50;99.90;;;;;;5054404;28;20202;-83
2023/10/13 10:30:00;;;;;;;11.75;4.70;;;21.50;99.90;;;;;;5047034;28;20223;-83
2023/10/13 10:32:40;;;;;;;12.27;4.80;;;21.40;99.90;;;;;;5047204;28;20728;-84
2023/10/13 10:35:14;;;;;;;10.50;4.50;;;21.50;99.90;;;;;;5044809;28;20245;-84
2023/10/13 10:37:46;;;;;;;10.80;4.93;;;21.60;99.90;;;;;;5047812;28;20271;-84
2023/10/13 10:40:31;;;;;;;8.90;4.47;;;21.60;99.90;;;;;;5058023;28;20215;-84
2023/10/13 10:43:00;;;;;;;8.10;3.83;;;21.50;99.90;;;;;;5044826;28;20203;-84
2023/10/13 10:45:32;;;;;;;10.27;4.63;;;21.50;99.90;;;;;;5053520;28;20203;-83
2023/10/13 10:47:59;;;;;;;10.07;4.95;;;21.60;99.90;;;;;;5059682;28;20248;-84
2023/10/13 10:50:34;;;;;;;10.88;4.45;;;21.70;99.90;;;;;;5055112;28;20294;-83
2023/10/13 10:53:08;;;;;;;7.93;4.57;;;21.70;99.90;;;;;;5055950;28;20202;-83
2023/10/13 10:55:36;;;;;;;8.75;4.38;;;21.70;99.90;;;;;;5056115;28;20557;-82
2023/10/13 10:58:06;;;;;;;10.75;4.75;;;21.70;99.90;;;;;;5053687;28;20225;-84
2023/10/13 11:00:45;;;;;;;7.70;4.18;;;21.70;99.90;;;;;;5055629;28;20290;-83
2023/10/13 11:03:12;;;;;;;12.90;4.47;;;21.90;99.90;;;;;;5054897;28;20652;-83
2023/10/13 11:05:49;;;;;;;6.90;4.38;;;22.00;99.90;;;;;;5044787;28;20209;-84
2023/10/13 11:08:31;;;;;;;10.80;3.90;;;22.10;99.90;;;;;;5058057;28;20563;-83
2023/10/13 11:11:00;;;;;;;13.82;4.97;;;22.20;99.90;;;;;;5054078;28;20207;-83
2023/10/13 11:13:30;;;;;;;11.18;4.70;;;22.10;99.90;;;;;;5049369;28;20206;-84
2023/10/13 11:15:58;;;;;;;12.32;4.90;;;22.00;99.90;;;;;;5050553;28;20203;-83
2023/10/13 11:18:33;;;;;;;11.02;4.80;;;22.10;99.90;;;;;;5050087;28;20219;-84
2023/10/13 11:21:06;;;;;;;9.95;4.82;;;22.10;99.90;;;;;;5051363;28;20285;-84
2023/10/13 11:23:36;;;;;;;9.45;5.00;;;22.00;99.90;;;;;;5051913;28;20249;-84
2023/10/13 11:26:04;;;;;;;9.25;5.10;;;22.20;99.90;;;;;;5050840;28;20566;-83
2023/10/13 11:28:34;;;;;;;11.27;4.43;;;22.30;99.90;;;;;;5053417;28;20322;-83
2023/10/13 11:31:10;;;;;;;8.50;4.65;;;22.50;99.90;;;;;;5048163;28;20204;-83
2023/10/13 11:33:46;;;;;;;8.95;4.53;;;22.50;99.90;;;;;;5044376;28;20203;-82
2023/10/13 11:36:17;;;;;;;13.23;5.20;;;22.50;99.90;;;;;;5045482;28;20203;-82
2023/10/13 11:38:49;;;;;;;12.70;4.90;;;22.30;99.90;;;;;;5048249;28;20226;-83
2023/10/13 11:41:18;;;;;;;12.70;4.97;;;22.30;99.90;;;;;;5052255;28;20246;-83
2023/10/13 11:49:18;;;;;;;10.45;5.18;;;22.70;99.90;;;;;;5055457;28;20226;-82
2023/10/13 11:51:47;;;;;;;15.15;5.18;;;22.80;99.90;;;;;;5049686;28;20224;-82
2023/10/13 11:54:15;;;;;;;11.10;4.75;;;22.90;99.90;;;;;;5053014;28;20576;-83
2023/10/13 11:56:42;;;;;;;9.57;5.20;;;23.10;99.90;;;;;;5053192;28;20203;-85
2023/10/13 11:59:16;;;;;;;13.60;5.38;;;23.30;99.90;;;;;;5056473;28;20661;-83
2023/10/13 12:04:40;;;;;;;11.52;5.10;;;23.50;99.90;;;;;;5030851;28;20195;-85
2023/10/13 12:07:19;;;;;;;14.80;5.70;;;23.50;99.90;;;;;;5046731;28;20198;-83
2023/10/13 12:10:03;;;;;;;14.23;5.60;;;23.70;99.90;;;;;;5049410;28;20669;-84
2023/10/13 12:12:31;;;;;;;10.82;4.75;;;23.80;99.90;;;;;;5047610;28;20216;-84
2023/10/13 12:15:09;;;;;;;11.45;4.55;;;23.70;99.90;;;;;;5048956;28;20195;-83
2023/10/13 12:17:35;;;;;;;16.67;5.55;;;23.80;99.90;;;;;;5049237;28;20681;-84
2023/10/13 12:20:04;;;;;;;8.95;4.60;;;24.20;99.90;;;;;;5051859;28;20231;-85
2023/10/13 12:22:38;;;;;;;14.13;5.50;;;24.10;99.90;;;;;;5053904;28;20257;-84
2023/10/13 12:25:18;;;;;;;9.27;5.28;;;23.50;99.90;;;;;;5044653;28;20207;-84
2023/10/13 12:27:48;;;;;;;11.98;5.32;;;23.30;99.90;;;;;;5045969;28;20213;-85
2023/10/13 12:30:22;;;;;;;9.10;4.35;;;23.20;99.90;;;;;;5047124;28;20275;-82
2023/10/13 12:32:58;;;;;;;17.33;5.32;;;23.00;99.90;;;;;;5050100;28;20228;-83
2023/10/13 12:35:34;;;;;;;10.82;5.18;;;23.00;99.90;;;;;;5048460;28;20234;-84
2023/10/13 12:38:16;;;;;;;12.35;5.88;;;22.90;99.90;;;;;;5050377;28;20295;-85
2023/10/13 12:52:15;;;;;;;13.32;4.90;;;23.70;99.90;;;;;;5056635;28;20310;-83
2023/10/13 12:54:58;;;;;;;16.88;5.72;;;23.90;99.90;;;;;;5059688;28;20209;-84
2023/10/13 12:57:29;;;;;;;10.90;5.50;;;23.90;99.90;;;;;;5055662;28;20203;-85
2023/10/13 12:59:56;;;;;;;15.80;5.43;;;24.00;99.90;;;;;;5059760;28;20234;-84
2023/10/13 13:05:14;;;;;;;13.98;4.80;;;23.50;99.90;;;;;;5054400;28;20218;-83
2023/10/13 13:07:47;;;;;;;13.35;5.70;;;23.40;99.90;;;;;;5050816;28;20202;-84
2023/10/13 13:10:15;;;;;;;12.95;5.55;;;23.10;99.90;;;;;;5056013;28;20223;-84
2023/10/13 13:12:42;;;;;;;11.55;5.40;;;22.90;99.90;;;;;;5057636;28;20227;-82
2023/10/13 13:15:11;;;;;;;13.18;5.95;;;22.80;99.90;;;;;;5043372;28;20230;-83
2023/10/13 13:17:39;;;;;;;9.00;4.78;;;23.10;99.90;;;;;;5053429;28;20207;-83
2023/10/13 13:20:11;;;;;;;17.58;5.90;;;23.30;99.90;;;;;;5050010;28;20236;-84
2023/10/13 13:22:38;;;;;;;13.85;5.75;;;23.50;99.90;;;;;;5052402;28;20250;-83
2023/10/13 13:25:09;;;;;;;15.77;6.25;;;23.70;99.90;;;;;;5055799;28;20214;-83
2023/10/13 13:27:41;;;;;;;14.02;5.40;;;23.80;99.90;;;;;;5055514;28;20219;-83
2023/10/13 13:30:12;;;;;;;13.52;5.50;;;23.60;99.90;;;;;;5047207;28;20227;-83
2023/10/13 13:32:40;;;;;;;13.27;5.88;;;23.60;99.90;;;;;;5046772;28;20286;-83
2023/10/13 13:35:08;;;;;;;12.50;5.68;;;23.70;99.90;;;;;;5052277;28;20633;-83
2023/10/13 13:37:37;;;;;;;12.73;5.50;;;23.40;99.90;;;;;;5046002;28;20764;-82
2023/10/13 13:40:14;;;;;;;13.25;5.63;;;23.20;99.90;;;;;;5047687;28;20740;-83
2023/10/13 13:42:50;;;;;;;11.82;5.55;;;23.00;99.90;;;;;;5056628;28;20199;-83
2023/10/13 13:45:21;;;;;;;14.50;5.43;;;22.90;99.90;;;;;;5050467;28;20203;-82
2023/10/13 13:47:53;;;;;;;17.92;6.07;;;22.90;99.90;;;;;;5045986;28;20208;-82
2023/10/13 13:50:24;;;;;;;13.68;5.93;;;23.00;99.90;;;;;;5051802;28;20325;-82
2023/10/13 13:52:52;;;;;;;12.73;4.95;;;23.10;99.90;;;;;;5050011;28;20227;-82
2023/10/13 13:55:20;;;;;;;12.00;5.50;;;23.00;99.90;;;;;;5052254;28;20198;-82
2023/10/13 13:57:50;;;;;;;11.77;5.50;;;23.20;99.90;;;;;;5054331;28;20207;-82
2023/10/13 14:00:23;;;;;;;12.05;5.72;;;23.30;99.90;;;;;;5055755;28;20587;-82
2023/10/13 14:02:49;;;;;;;15.80;6.22;;;23.40;99.90;;;;;;5058132;28;20207;-81
2023/10/13 14:05:17;;;;;;;15.65;5.53;;;23.40;99.90;;;;;;5055249;28;20289;-82
2023/10/13 14:07:48;;;;;;;14.85;5.82;;;23.50;99.90;;;;;;5055648;28;20592;-81
2023/10/13 14:10:31;;;;;;;12.52;6.05;;;23.60;99.90;;;;;;5052942;28;20226;-81
2023/10/13 14:13:06;;;;;;;18.85;7.00;;;23.60;99.90;;;;;;5053365;28;20227;-82
2023/10/13 14:15:39;;;;;;;11.98;5.32;;;23.50;99.90;;;;;;5051417;28;20202;-81
2023/10/13 14:18:12;;;;;;;14.80;5.60;;;23.60;99.90;;;;;;5055413;28;20211;-82
2023/10/13 14:20:39;;;;;;;14.02;5.78;;;23.50;99.90;;;;;;5055688;28;20583;-82
2023/10/13 14:23:11;;;;;;;15.10;6.03;;;23.40;99.90;;;;;;5059984;28;20205;-81
2023/10/13 14:25:39;;;;;;;13.63;6.07;;;23.30;99.90;;;;;;5056494;28;20199;-83
2023/10/13 14:28:07;;;;;;;11.07;5.32;;;23.40;99.90;;;;;;5060592;28;20584;-82
2023/10/13 14:30:34;;;;;;;11.43;6.13;;;23.30;99.90;;;;;;5056783;28;20210;-82
2023/10/13 14:33:01;;;;;;;15.70;5.68;;;23.10;99.90;;;;;;5054054;28;20219;-83
2023/10/13 14:35:28;;;;;;;10.82;5.32;;;23.10;99.90;;;;;;5060735;28;20205;-82
2023/10/13 14:37:55;;;;;;;15.35;5.68;;;23.10;99.90;;;;;;5053178;28;20206;-82
2023/10/13 14:40:22;;;;;;;13.93;5.68;;;23.10;99.90;;;;;;5051059;28;20219;-82
2023/10/13 14:42:49;;;;;;;14.55;5.63;;;23.10;99.90;;;;;;5054384;28;20291;-82
2023/10/13 14:45:17;;;;;;;13.32;5.82;;;23.00;99.90;;;;;;5053885;28;20641;-82
2023/10/13 14:47:45;;;;;;;12.07;5.72;;;23.00;99.90;;;;;;5056183;28;20591;-82
2023/10/13 14:50:19;;;;;;;14.50;5.85;;;23.00;99.90;;;;;;5058264;28;20238;-81
2023/10/13 14:52:48;;;;;;;13.57;5.75;;;23.00;99.90;;;;;;5058810;28;20226;-82
2023/10/13 14:55:19;;;;;;;15.82;6.00;;;23.10;99.90;;;;;;5054970;28;20207;-81
2023/10/13 14:57:49;;;;;;;14.13;5.80;;;22.80;99.90;;;;;;5041391;28;20204;-82
2023/10/13 15:00:24;;;;;;;15.13;6.03;;;22.90;99.90;;;;;;5053445;28;20768;-83
2023/10/13 15:02:52;;;;;;;13.63;5.57;;;23.00;99.90;;;;;;5049639;28;20206;-82
2023/10/13 15:05:19;;;;;;;11.95;5.80;;;22.90;99.90;;;;;;5055068;28;20199;-81
2023/10/13 15:07:46;;;;;;;12.82;6.07;;;22.80;99.90;;;;;;5058875;28;20661;-83
2023/10/13 15:10:15;;;;;;;14.98;6.07;;;22.90;99.90;;;;;;5057163;28;20601;-82
2023/10/13 15:12:44;;;;;;;15.82;6.28;;;22.80;99.90;;;;;;5054198;28;20288;-83